Vlieland, Nederland

6:23 AM CEST op 30 maart 2015 (GMT +0200)
Vlieland | | Change Station
CLOSE
Current Station
Luchthaven
Location: Vlieland,
Geometrische hoogte: 36 ft
Nabije weerstations
Actief advies: Wind nederlands:

Hoogte 36 ft 53.24 °N, 4.92 °E | Updated 28 minutes ago

Overcast
Geheel bewolkt
45 °F
Voelt als 34 °F
N
37
Wind Variabel Wind van WNW

Vandaag
Hoog -- | Laag -- °F
--% Kans op neerslag
Gisteren
Hoog -- | Laag -- °F
Precip. -- inches
7:19 AM 8:11 PM
Wassende maan, 76% visible
Druk 29.36 inches
Zicht 6.2 mijlen
Wolken Gering 3200 ft
Licht bewolkt 3700 ft
Geheel bewolkt 4100 ft
Gevoelstemperatuur 34 °F
Dauwpunt 34 °F
Vochtigheid 66%
Neerslag 0.00 inches
Dikte sneeuw Niet beschikbaar.
UV 0 van de 12
Pollen Niet beschikbaar.
Luchtkwaliteit Niet beschikbaar.
Flu Activity Niet beschikbaar.
METAR EHVL 300355Z AUTO 29032KT 9999 FEW032 SCT037 OVC041 07/01 Q0994 BLU

More Conditions Fewer Conditions

Druk 29.36 inches
Zicht 6.2 mijlen
Wolken Gering 3200 ft
Licht bewolkt 3700 ft
Geheel bewolkt 4100 ft
Gevoelstemperatuur 34 °F
Dauwpunt 34 °F
Vochtigheid 66%
Neerslag 0.00 inches
Dikte sneeuw Niet beschikbaar.
UV 0 van de 12
Pollen Niet beschikbaar.
Luchtkwaliteit Niet beschikbaar.
Flu Activity Niet beschikbaar.
METAR EHVL 300355Z AUTO 29032KT 9999 FEW032 SCT037 OVC041 07/01 Q0994 BLU

More Conditions Fewer Conditions

10-Day Weather Forecast

Almanac

Astronomie

Mar. 30, 2015 Opkomst Ondergang
Werkelijke tijd
Burgerlijke schemering
Nautische schemering
Astronomische schemering
Maan
Golflengte van het zichtbare licht
Daglengte
Tomorrow will be .
, % of the Moon is Illuminated

Extremen vandaag

Country Highs Country Lows

Community

WunderPhotos

Upload Photos

1,809,433 foto’s ge-upload!

WunderBlogs® & News

Nearby

Luchtkwaliteit

  Luchtkwaliteit LK-index Verontreinigende stof
Not available.

Dikte sneeuw

Station Depth Geometrische hoogte

Aardbevingen

Stad Distance Mag. Time & Date
Minimum magnitude displayed is 2.5.

Watertemperatuur langs de kust

Plaats Temperatuur

Stations

Nabije weerstations

Locatie station Temp. Gevoelstemperatuur Dauwpunt Vochtigheid Wind Precip. Hoogte Geactualiseerd Type